createdAt,value
2023-05-06T00:00:17.448Z,7.70
2023-05-06T00:02:47.091Z,6.40
2023-05-06T00:05:18.424Z,5.03
2023-05-06T00:07:47.115Z,6.33
2023-05-06T00:10:15.926Z,6.07
2023-05-06T00:12:44.590Z,10.97
2023-05-06T00:15:14.775Z,6.40
2023-05-06T00:17:43.692Z,5.40
2023-05-06T00:20:13.012Z,9.47
2023-05-06T00:22:41.700Z,7.13
2023-05-06T00:25:11.119Z,7.53
2023-05-06T00:27:40.001Z,15.23
2023-05-06T00:30:09.939Z,8.83
2023-05-06T00:32:39.927Z,7.63
2023-05-06T00:35:09.648Z,7.30
2023-05-06T00:37:38.286Z,13.30
2023-05-06T00:40:08.147Z,7.43
2023-05-06T00:42:36.732Z,6.93
2023-05-06T00:45:05.992Z,6.00
2023-05-06T00:47:34.654Z,6.80
2023-05-06T00:50:04.937Z,10.03
2023-05-06T00:52:33.967Z,8.03
2023-05-06T00:55:02.638Z,20.27
2023-05-06T00:57:31.201Z,11.63
2023-05-06T00:59:59.806Z,11.00
2023-05-06T01:02:39.553Z,6.57
2023-05-06T01:05:16.318Z,5.90
2023-05-06T01:07:47.786Z,8.70
2023-05-06T01:10:21.590Z,12.97
2023-05-06T01:12:52.902Z,6.90
2023-05-06T01:15:23.083Z,15.03
2023-05-06T01:17:52.179Z,8.30
2023-05-06T01:20:22.406Z,7.43
2023-05-06T01:22:51.401Z,7.03
2023-05-06T01:25:21.584Z,5.93
2023-05-06T01:27:50.236Z,5.93
2023-05-06T01:30:19.425Z,10.10
2023-05-06T01:32:54.864Z,7.10
2023-05-06T01:35:27.384Z,6.50
2023-05-06T01:38:00.961Z,17.00
2023-05-06T01:40:31.004Z,11.13
2023-05-06T01:42:59.573Z,13.60
2023-05-06T01:45:29.813Z,10.90
2023-05-06T01:47:58.499Z,6.10
2023-05-06T01:50:27.421Z,11.53
2023-05-06T01:53:01.263Z,7.67
2023-05-06T01:55:32.178Z,9.73
2023-05-06T01:58:00.787Z,15.63
2023-05-06T02:00:29.397Z,14.17
2023-05-06T02:02:58.443Z,13.53
2023-05-06T02:05:27.460Z,9.70
2023-05-06T02:07:56.054Z,11.10
2023-05-06T02:10:24.725Z,7.77
2023-05-06T02:12:54.713Z,10.43
2023-05-06T02:15:23.395Z,10.33
2023-05-06T02:17:53.448Z,7.00
2023-05-06T02:20:22.256Z,15.13
2023-05-06T02:22:50.909Z,8.23
2023-05-06T02:25:19.596Z,9.30
2023-05-06T02:27:48.235Z,13.13
2023-05-06T02:30:18.270Z,9.77
2023-05-06T02:32:47.277Z,7.73
2023-05-06T02:35:15.927Z,6.20
2023-05-06T02:37:44.465Z,8.10
2023-05-06T02:40:13.600Z,8.87
2023-05-06T02:42:42.276Z,8.20
2023-05-06T02:45:11.864Z,8.53
2023-05-06T02:47:42.035Z,8.90
2023-05-06T02:50:10.817Z,11.87
2023-05-06T02:52:39.491Z,20.23
2023-05-06T02:55:09.063Z,8.83
2023-05-06T02:57:37.862Z,10.30
2023-05-06T03:00:07.730Z,7.37
2023-05-06T03:02:36.430Z,15.23
2023-05-06T03:05:07.191Z,13.43
2023-05-06T03:07:37.714Z,8.17
2023-05-06T03:10:07.557Z,10.90
2023-05-06T03:12:36.180Z,15.40
2023-05-06T03:15:05.077Z,9.20
2023-05-06T03:17:33.761Z,12.33
2023-05-06T03:20:02.349Z,7.30
2023-05-06T03:22:32.278Z,11.00
2023-05-06T03:25:00.943Z,6.73
2023-05-06T03:27:29.578Z,8.33
2023-05-06T03:29:58.174Z,9.20
2023-05-06T03:32:26.853Z,14.53
2023-05-06T03:34:55.432Z,12.87
2023-05-06T03:37:24.030Z,10.90
2023-05-06T03:39:53.993Z,8.70
2023-05-06T03:42:22.699Z,9.00
2023-05-06T03:44:51.271Z,8.30
2023-05-06T03:47:19.977Z,6.47
2023-05-06T03:49:48.580Z,9.50
2023-05-06T03:52:17.161Z,7.00
2023-05-06T03:54:45.767Z,11.30
2023-05-06T03:57:15.754Z,8.83
2023-05-06T03:59:44.491Z,10.27
2023-05-06T04:02:13.147Z,7.83
2023-05-06T04:04:41.809Z,12.30
2023-05-06T04:07:10.446Z,10.90
2023-05-06T04:09:39.037Z,9.03
2023-05-06T04:12:08.056Z,9.03
2023-05-06T04:14:38.049Z,8.10
2023-05-06T04:17:07.167Z,9.00
2023-05-06T04:19:35.762Z,9.07
2023-05-06T04:22:04.382Z,7.10
2023-05-06T04:24:33.834Z,10.03
2023-05-06T04:27:03.792Z,8.90
2023-05-06T04:29:32.350Z,7.97
2023-05-06T04:32:02.971Z,13.73
2023-05-06T04:34:31.720Z,12.57
2023-05-06T04:37:00.816Z,9.90
2023-05-06T04:39:29.358Z,8.00
2023-05-06T04:41:57.963Z,18.20
2023-05-06T04:44:27.137Z,11.67
2023-05-06T04:46:55.752Z,10.83
2023-05-06T04:49:25.918Z,7.83
2023-05-06T04:51:54.742Z,9.80
2023-05-06T04:54:23.290Z,14.67
2023-05-06T04:56:51.914Z,8.97
2023-05-06T04:59:20.751Z,7.60
2023-05-06T05:01:49.454Z,13.90
2023-05-06T05:04:18.083Z,7.73
2023-05-06T05:06:48.097Z,10.23
2023-05-06T05:09:16.671Z,9.07
2023-05-06T05:11:45.222Z,8.60
2023-05-06T05:14:13.812Z,8.30
2023-05-06T05:16:42.504Z,6.67
2023-05-06T05:19:11.152Z,9.20
2023-05-06T05:21:39.851Z,11.10
2023-05-06T05:24:09.969Z,13.60
2023-05-06T05:26:38.536Z,7.37
2023-05-06T05:29:08.039Z,10.17
2023-05-06T05:31:36.650Z,7.90
2023-05-06T05:34:05.350Z,12.90
2023-05-06T05:36:33.957Z,9.03
2023-05-06T05:39:02.575Z,7.57
2023-05-06T05:41:32.535Z,11.87
2023-05-06T05:44:01.151Z,15.00
2023-05-06T05:46:29.823Z,12.17
2023-05-06T05:48:58.444Z,11.60
2023-05-06T05:51:27.060Z,11.50
2023-05-06T05:53:55.876Z,9.20
2023-05-06T05:56:24.462Z,9.53
2023-05-06T05:58:54.673Z,7.50
2023-05-06T06:01:23.294Z,11.60
2023-05-06T06:03:52.466Z,9.37
2023-05-06T06:06:21.169Z,9.57
2023-05-06T06:08:49.823Z,10.03
2023-05-06T06:11:18.488Z,11.90
2023-05-06T06:13:47.071Z,7.37
2023-05-06T06:16:17.054Z,8.70
2023-05-06T06:18:45.693Z,16.50
2023-05-06T06:21:14.277Z,10.20
2023-05-06T06:23:42.899Z,9.90
2023-05-06T06:26:12.410Z,8.40
2023-05-06T06:28:41.890Z,8.43
2023-05-06T06:31:10.569Z,16.40
2023-05-06T06:33:40.652Z,8.83
2023-05-06T06:36:09.999Z,9.83
2023-05-06T06:38:38.927Z,9.17
2023-05-06T06:41:07.527Z,10.97
2023-05-06T06:43:36.145Z,15.30
2023-05-06T06:46:04.786Z,15.37
2023-05-06T06:48:33.357Z,10.17
2023-05-06T06:51:03.368Z,16.53
2023-05-06T06:53:31.966Z,8.80
2023-05-06T06:56:00.699Z,8.37
2023-05-06T06:58:29.567Z,13.20
2023-05-06T07:00:58.298Z,11.93
2023-05-06T07:03:26.940Z,9.20
2023-05-06T07:05:55.550Z,12.80
2023-05-06T07:08:25.607Z,9.40
2023-05-06T07:10:54.180Z,9.20
2023-05-06T07:13:23.440Z,14.10
2023-05-06T07:15:52.081Z,13.90
2023-05-06T07:18:20.819Z,12.67
2023-05-06T07:20:49.474Z,9.90
2023-05-06T07:23:18.078Z,14.67
2023-05-06T07:25:48.233Z,8.50
2023-05-06T07:28:16.853Z,9.37
2023-05-06T07:30:45.784Z,11.67
2023-05-06T07:33:14.448Z,10.67
2023-05-06T07:35:43.011Z,10.60
2023-05-06T07:38:11.634Z,9.50
2023-05-06T07:40:40.225Z,9.30
2023-05-06T07:43:10.533Z,10.57
2023-05-06T07:45:39.107Z,17.77
2023-05-06T07:48:08.073Z,11.60
2023-05-06T07:50:36.736Z,11.00
2023-05-06T07:53:05.332Z,17.60
2023-05-06T07:55:35.079Z,11.13
2023-05-06T07:58:03.873Z,13.87
2023-05-06T08:00:33.881Z,13.83
2023-05-06T08:03:02.625Z,11.67
2023-05-06T08:05:31.347Z,10.20
2023-05-06T08:08:00.620Z,10.73
2023-05-06T08:10:29.216Z,13.60
2023-05-06T08:12:57.843Z,11.80
2023-05-06T08:15:26.521Z,12.97
2023-05-06T08:18:02.152Z,16.77
2023-05-06T08:20:35.870Z,13.90
2023-05-06T08:23:04.523Z,12.33
2023-05-06T08:25:33.109Z,14.30
2023-05-06T08:28:01.706Z,14.20
2023-05-06T08:30:30.418Z,15.83
2023-05-06T08:33:00.460Z,22.40
2023-05-06T08:35:29.130Z,15.60
2023-05-06T08:37:57.775Z,12.87
2023-05-06T08:40:27.197Z,16.17
2023-05-06T08:42:57.409Z,18.00
2023-05-06T08:45:27.390Z,11.57
2023-05-06T08:47:59.395Z,15.87
2023-05-06T08:50:28.051Z,11.60
2023-05-06T08:52:56.665Z,18.03
2023-05-06T08:55:25.699Z,14.43
2023-05-06T08:57:54.597Z,12.00
2023-05-06T09:00:23.245Z,18.00
2023-05-06T09:02:51.946Z,11.50
2023-05-06T09:05:22.175Z,12.43
2023-05-06T09:07:50.715Z,11.87
2023-05-06T09:10:19.443Z,10.57
2023-05-06T09:12:48.166Z,10.80
2023-05-06T09:15:16.882Z,11.83
2023-05-06T09:17:45.460Z,11.20
2023-05-06T09:20:14.174Z,9.37
2023-05-06T09:22:45.443Z,11.10
2023-05-06T09:25:14.199Z,8.57
2023-05-06T09:27:42.755Z,9.30
2023-05-06T09:30:12.661Z,8.83
2023-05-06T09:32:41.786Z,9.40
2023-05-06T09:35:11.836Z,10.57
2023-05-06T09:37:40.659Z,10.60
2023-05-06T09:40:11.774Z,7.97
2023-05-06T09:42:40.430Z,6.47
2023-05-06T09:45:10.306Z,6.97
2023-05-06T09:47:39.309Z,7.13
2023-05-06T09:50:09.798Z,9.80
2023-05-06T09:52:38.400Z,7.30
2023-05-06T09:55:07.817Z,6.23
2023-05-06T09:57:38.137Z,6.80
2023-05-06T10:00:08.171Z,7.00
2023-05-06T10:02:37.000Z,7.20
2023-05-06T10:05:06.924Z,7.23
2023-05-06T10:07:35.688Z,6.13
2023-05-06T10:10:04.321Z,7.03
2023-05-06T10:12:32.929Z,6.90
2023-05-06T10:15:04.365Z,6.13
2023-05-06T10:17:33.417Z,8.30
2023-05-06T10:20:02.888Z,6.60
2023-05-06T10:22:35.623Z,7.20
2023-05-06T10:25:06.910Z,7.50
2023-05-06T10:27:37.024Z,5.80
2023-05-06T10:30:08.465Z,7.03
2023-05-06T10:32:37.225Z,6.50
2023-05-06T10:35:09.950Z,10.80
2023-05-06T10:37:38.763Z,5.83
2023-05-06T10:40:09.928Z,6.70
2023-05-06T10:42:38.605Z,5.30
2023-05-06T10:45:10.874Z,5.70
2023-05-06T10:48:09.829Z,5.10
2023-05-06T10:50:38.724Z,6.40
2023-05-06T10:53:07.363Z,4.70
2023-05-06T10:55:36.702Z,5.27
2023-05-06T10:58:07.925Z,5.87
2023-05-06T11:00:37.984Z,4.30
2023-05-06T11:03:08.345Z,5.30
2023-05-06T11:05:47.375Z,4.60
2023-05-06T11:08:16.042Z,5.10
2023-05-06T11:10:44.704Z,4.30
2023-05-06T11:13:27.552Z,5.30
2023-05-06T11:15:57.987Z,4.43
2023-05-06T11:18:45.132Z,4.47
2023-05-06T11:21:41.630Z,4.57
2023-05-06T11:24:11.798Z,4.60
2023-05-06T11:26:42.685Z,3.70
2023-05-06T11:29:11.337Z,3.03
2023-05-06T11:31:42.472Z,3.43
2023-05-06T11:34:12.828Z,4.00
2023-05-06T11:36:49.398Z,3.33
2023-05-06T11:39:17.989Z,6.30
2023-05-06T11:41:46.584Z,6.07
2023-05-06T11:44:26.034Z,5.30
2023-05-06T11:47:03.157Z,8.23
2023-05-06T11:49:31.956Z,5.93
2023-05-06T11:52:00.804Z,5.63
2023-05-06T11:54:29.395Z,3.83
2023-05-06T11:56:58.143Z,3.50
2023-05-06T11:59:31.263Z,3.70
2023-05-06T12:02:02.427Z,4.10
2023-05-06T12:04:38.963Z,4.10
2023-05-06T12:07:07.932Z,2.47
2023-05-06T12:09:37.101Z,4.00
2023-05-06T12:12:06.578Z,4.00
2023-05-06T12:14:35.264Z,4.10
2023-05-06T12:17:05.214Z,3.63
2023-05-06T12:19:33.996Z,4.30
2023-05-06T12:22:17.938Z,6.50
2023-05-06T12:24:46.645Z,3.63
2023-05-06T12:27:15.466Z,5.97
2023-05-06T12:29:53.912Z,4.33
2023-05-06T12:32:24.006Z,4.43
2023-05-06T12:34:52.659Z,3.83
2023-05-06T12:37:28.581Z,4.87
2023-05-06T12:39:59.074Z,5.77
2023-05-06T12:42:28.316Z,4.93
2023-05-06T12:44:57.017Z,5.53
2023-05-06T12:47:27.593Z,4.13
2023-05-06T12:49:58.045Z,4.07
2023-05-06T12:52:27.484Z,3.93
2023-05-06T12:54:56.060Z,4.30
2023-05-06T12:57:24.709Z,3.87
2023-05-06T12:59:53.825Z,3.90
2023-05-06T13:02:22.522Z,4.73
2023-05-06T13:04:52.825Z,5.07
2023-05-06T13:07:22.269Z,4.03
2023-05-06T13:09:50.984Z,4.40
2023-05-06T13:12:19.530Z,4.47
2023-05-06T13:14:48.142Z,3.97
2023-05-06T13:17:16.850Z,3.90
2023-05-06T13:19:45.565Z,5.07
2023-05-06T13:22:16.592Z,4.27
2023-05-06T13:24:45.212Z,3.30
2023-05-06T13:27:13.848Z,4.20
2023-05-06T13:29:42.421Z,5.80
2023-05-06T13:32:11.001Z,3.93
2023-05-06T13:34:39.610Z,5.70
2023-05-06T13:37:08.209Z,4.00
2023-05-06T13:39:38.172Z,4.13
2023-05-06T13:42:08.165Z,3.93
2023-05-06T13:44:37.188Z,3.90
2023-05-06T13:47:05.926Z,3.63
2023-05-06T13:49:34.543Z,3.70
2023-05-06T13:52:03.986Z,3.73
2023-05-06T13:54:33.345Z,3.80
2023-05-06T13:57:03.508Z,4.60
2023-05-06T13:59:32.243Z,6.10
2023-05-06T14:02:01.691Z,3.27
2023-05-06T14:04:30.540Z,3.50
2023-05-06T14:06:59.172Z,3.50
2023-05-06T14:09:27.751Z,3.70
2023-05-06T14:11:56.304Z,3.97
2023-05-06T14:14:27.432Z,3.03
2023-05-06T14:16:56.004Z,4.10
2023-05-06T14:19:24.693Z,3.70
2023-05-06T14:21:53.246Z,3.27
2023-05-06T14:24:21.818Z,3.50
2023-05-06T14:26:50.383Z,4.90
2023-05-06T14:29:19.039Z,3.07
2023-05-06T14:31:48.993Z,3.53
2023-05-06T14:34:17.561Z,3.00
2023-05-06T14:36:46.133Z,3.10
2023-05-06T14:39:14.917Z,2.73
2023-05-06T14:41:43.540Z,2.30
2023-05-06T14:44:12.162Z,2.67
2023-05-06T14:46:40.733Z,3.43
2023-05-06T14:49:10.724Z,2.50
2023-05-06T14:51:39.332Z,2.90
2023-05-06T14:54:07.866Z,3.17
2023-05-06T14:56:36.510Z,2.60
2023-05-06T14:59:05.192Z,2.83
2023-05-06T15:01:34.000Z,3.57
2023-05-06T15:04:02.669Z,3.00
2023-05-06T15:06:32.868Z,10.60
2023-05-06T15:09:02.313Z,3.03
2023-05-06T15:11:30.892Z,3.40
2023-05-06T15:13:59.454Z,5.20
2023-05-06T15:16:28.162Z,3.20
2023-05-06T15:18:56.813Z,2.80
2023-05-06T15:21:25.456Z,3.07
2023-05-06T15:23:56.144Z,2.30
2023-05-06T15:26:24.744Z,3.87
2023-05-06T15:28:53.361Z,3.83
2023-05-06T15:31:21.987Z,6.30
2023-05-06T15:33:50.561Z,4.23
2023-05-06T15:36:19.159Z,5.80
2023-05-06T15:39:10.184Z,3.73
2023-05-06T15:41:39.749Z,3.30
2023-05-06T15:44:09.995Z,5.77
2023-05-06T15:46:38.848Z,7.70
2023-05-06T15:51:39.326Z,3.13
2023-05-06T15:54:08.876Z,3.30
2023-05-06T15:56:41.321Z,3.30
2023-05-06T15:59:10.276Z,3.30
2023-05-06T16:04:10.797Z,4.03
2023-05-06T16:06:39.504Z,5.73
2023-05-06T16:09:08.876Z,5.33
2023-05-06T16:11:39.068Z,4.43
2023-05-06T16:14:07.685Z,5.17
2023-05-06T16:16:36.374Z,5.10
2023-05-06T16:19:05.235Z,13.50
2023-05-06T16:21:34.410Z,12.90
2023-05-06T16:24:03.386Z,23.80
2023-05-06T16:26:32.051Z,5.73
2023-05-06T16:29:02.029Z,15.13
2023-05-06T16:31:30.878Z,17.40
2023-05-06T16:33:59.470Z,8.27
2023-05-06T16:36:28.687Z,20.30
2023-05-06T16:38:57.334Z,7.93
2023-05-06T16:41:25.961Z,14.90
2023-05-06T16:43:54.795Z,16.10
2023-05-06T16:46:26.129Z,35.87
2023-05-06T16:48:54.859Z,23.07
2023-05-06T16:51:23.612Z,7.37
2023-05-06T16:53:52.670Z,6.40
2023-05-06T16:56:21.366Z,6.33
2023-05-06T16:58:49.962Z,4.50
2023-05-06T17:01:18.675Z,4.93
2023-05-06T17:03:48.742Z,3.93
2023-05-06T17:06:17.311Z,7.77
2023-05-06T17:08:46.570Z,3.37
2023-05-06T17:11:15.183Z,3.17
2023-05-06T17:13:43.800Z,3.83
2023-05-06T17:16:12.403Z,3.40
2023-05-06T17:18:41.061Z,3.80
2023-05-06T17:21:11.167Z,4.40
2023-05-06T17:23:39.758Z,4.03
2023-05-06T17:26:10.260Z,3.90
2023-05-06T17:28:39.240Z,4.27
2023-05-06T17:31:07.947Z,7.60
2023-05-06T17:33:36.616Z,4.00
2023-05-06T17:36:05.595Z,4.80
2023-05-06T17:38:35.562Z,4.47
2023-05-06T17:41:04.201Z,5.67
2023-05-06T17:43:33.591Z,4.33
2023-05-06T17:46:02.215Z,3.80
2023-05-06T17:48:30.831Z,6.53
2023-05-06T17:51:02.321Z,3.90
2023-05-06T17:53:32.309Z,4.70
2023-05-06T17:56:02.352Z,5.83
2023-05-06T17:58:30.917Z,4.87
2023-05-06T18:00:59.574Z,4.70
2023-05-06T18:03:28.208Z,4.40
2023-05-06T18:05:57.164Z,4.27
2023-05-06T18:08:25.735Z,4.97
2023-05-06T18:10:54.292Z,5.43
2023-05-06T18:13:24.826Z,5.00
2023-05-06T18:15:53.485Z,4.37
2023-05-06T18:18:22.078Z,5.70
2023-05-06T18:20:50.683Z,4.33
2023-05-06T18:23:19.335Z,32.77
2023-05-06T18:25:47.938Z,6.10
2023-05-06T18:28:16.923Z,5.03
2023-05-06T18:30:46.884Z,4.93
2023-05-06T18:33:15.556Z,5.27
2023-05-06T18:35:44.244Z,9.07
2023-05-06T18:38:13.531Z,5.30
2023-05-06T18:40:43.770Z,9.83
2023-05-06T18:43:12.387Z,6.67
2023-05-06T18:45:41.041Z,6.70
2023-05-06T18:48:11.639Z,8.13
2023-05-06T18:50:40.246Z,7.13
2023-05-06T18:53:08.857Z,6.27
2023-05-06T18:55:38.117Z,7.20
2023-05-06T18:58:06.703Z,7.13
2023-05-06T19:00:35.330Z,10.77
2023-05-06T19:03:04.272Z,8.37
2023-05-06T19:05:34.267Z,9.70
2023-05-06T19:08:05.098Z,8.60
2023-05-06T19:10:35.686Z,9.60
2023-05-06T19:13:05.023Z,9.90
2023-05-06T19:15:35.295Z,8.97
2023-05-06T19:18:03.944Z,8.17
2023-05-06T19:20:34.107Z,8.73
2023-05-06T19:23:04.601Z,10.10
2023-05-06T19:25:34.979Z,11.07
2023-05-06T19:28:03.610Z,10.80
2023-05-06T19:30:33.363Z,10.60
2023-05-06T19:33:02.282Z,10.67
2023-05-06T19:35:30.952Z,10.70
2023-05-06T19:38:01.131Z,10.27
2023-05-06T19:40:31.068Z,13.63
2023-05-06T19:43:03.730Z,11.23
2023-05-06T19:45:32.560Z,15.27
2023-05-06T19:48:01.464Z,16.03
2023-05-06T19:50:31.570Z,12.23
2023-05-06T19:53:01.568Z,15.73
2023-05-06T19:55:30.854Z,21.30
2023-05-06T19:57:59.495Z,14.50
2023-05-06T20:00:28.215Z,14.47
2023-05-06T20:02:57.509Z,21.97
2023-05-06T20:05:29.527Z,14.60
2023-05-06T20:07:59.563Z,15.47
2023-05-06T20:10:29.694Z,17.67
2023-05-06T20:12:58.436Z,14.47
2023-05-06T20:15:28.288Z,13.57
2023-05-06T20:17:56.947Z,14.53
2023-05-06T20:20:33.987Z,18.63
2023-05-06T20:23:02.809Z,17.60
2023-05-06T20:25:32.954Z,19.17
2023-05-06T20:28:03.245Z,15.77
2023-05-06T20:30:31.868Z,13.73
2023-05-06T20:33:01.059Z,15.70
2023-05-06T20:35:29.758Z,19.00
2023-05-06T20:37:58.343Z,19.20
2023-05-06T20:40:26.996Z,13.70
2023-05-06T20:42:57.101Z,15.90
2023-05-06T20:45:26.060Z,15.10
2023-05-06T20:47:55.132Z,20.57
2023-05-06T20:50:23.772Z,16.97
2023-05-06T20:52:53.112Z,15.60
2023-05-06T20:55:23.208Z,18.47
2023-05-06T20:57:52.108Z,18.83
2023-05-06T21:00:22.890Z,18.57
2023-05-06T21:02:51.782Z,20.03
2023-05-06T21:05:20.452Z,17.63
2023-05-06T21:07:49.103Z,18.80
2023-05-06T21:10:17.753Z,19.13
2023-05-06T21:12:49.482Z,18.13
2023-05-06T21:15:18.136Z,19.50
2023-05-06T21:17:48.242Z,20.33
2023-05-06T21:20:17.355Z,18.13
2023-05-06T21:22:46.092Z,19.67
2023-05-06T21:25:14.685Z,26.47
2023-05-06T21:27:43.317Z,22.03
2023-05-06T21:30:13.098Z,26.33
2023-05-06T21:32:41.756Z,18.60
2023-05-06T21:35:12.136Z,22.07
2023-05-06T21:37:40.976Z,23.57
2023-05-06T21:40:10.875Z,21.60
2023-05-06T21:42:39.461Z,24.00
2023-05-06T21:45:09.282Z,25.83
2023-05-06T21:47:38.144Z,22.23
2023-05-06T21:50:08.182Z,23.47
2023-05-06T21:52:38.153Z,19.80
2023-05-06T21:55:07.669Z,16.07
2023-05-06T21:57:36.281Z,25.30
2023-05-06T22:00:08.611Z,18.90
2023-05-06T22:02:37.305Z,18.60
2023-05-06T22:05:06.672Z,17.80
2023-05-06T22:07:35.712Z,20.37
2023-05-06T22:10:06.473Z,16.17
2023-05-06T22:12:36.346Z,21.77
2023-05-06T22:15:05.390Z,24.13
2023-05-06T22:17:34.811Z,21.77
2023-05-06T22:20:04.348Z,21.53
2023-05-06T22:22:33.314Z,19.77
2023-05-06T22:25:02.295Z,26.13
2023-05-06T22:27:32.357Z,23.30
2023-05-06T22:30:01.000Z,18.53
2023-05-06T22:32:29.615Z,20.17
2023-05-06T22:34:58.175Z,22.33
2023-05-06T22:37:26.785Z,26.90
2023-05-06T22:39:57.844Z,17.47
2023-05-06T22:42:26.517Z,20.93
2023-05-06T22:44:56.506Z,19.90
2023-05-06T22:47:25.185Z,15.13
2023-05-06T22:49:53.751Z,14.37
2023-05-06T22:52:22.341Z,18.90
2023-05-06T22:54:50.936Z,15.60
2023-05-06T22:57:22.803Z,23.17
2023-05-06T22:59:51.497Z,17.40
2023-05-06T23:02:21.557Z,16.50
2023-05-06T23:04:50.190Z,18.87
2023-05-06T23:07:18.834Z,19.00
2023-05-06T23:09:47.396Z,16.53
2023-05-06T23:12:16.070Z,20.13
2023-05-06T23:14:44.676Z,16.60
2023-05-06T23:17:13.304Z,16.30
2023-05-06T23:19:44.183Z,16.10
2023-05-06T23:22:13.906Z,15.03
2023-05-06T23:24:42.592Z,13.37
2023-05-06T23:27:11.349Z,17.30
2023-05-06T23:29:39.932Z,17.10
2023-05-06T23:32:08.594Z,18.13
2023-05-06T23:34:37.213Z,14.93
2023-05-06T23:37:07.165Z,19.03
2023-05-06T23:39:36.139Z,14.63
2023-05-06T23:42:04.884Z,19.57
2023-05-06T23:44:33.466Z,22.03
2023-05-06T23:47:02.793Z,20.10
2023-05-06T23:49:31.393Z,21.10
2023-05-06T23:52:00.042Z,15.10
2023-05-06T23:54:30.034Z,14.70
2023-05-06T23:56:59.023Z,17.17
2023-05-06T23:59:27.654Z,12.70
